Patton, Texas
Current Conditions -  °F | °C
As of 1:35 PM on Friday 28 Nov 2014 (Local Time) from K6R3 Reporting Station
Scattered Clouds Scattered Clouds  
Wind Chill: 71°   Ceiling: Unl
Heat Index: 71°   Visibility: 10mi
Dew Point: 56°   Wind: 10mph
Humidity: 59%   Direction: 190°S
Pressure: 30.23"   Gusts: NA
Location:  30.2559°N, 95.1867°W
Report Text: K6R3 281935Z AUTO 19009KT 10SM SCT048 22/13 A3023 RMK AO2 T02150133
Loading
Personal Weather Stations






























Interactive Weather Map New forecast layout! Learn more

10-Day Weather Forecast

Advertisements
Track Severe Weather on mobile